Time;durP1;ratioP1;P1;durP2;ratioP2;P2;SDS_P1;SDS_P2;PMS_P1;PMS_P2;Temp;Humidity;BMP_temperature;BMP_pressure;BME280_temperature;BME280_humidity;BME280_pressure;Samples;Min_cycle;Max_cycle;Signal;HPM_P1;HPM_P2
2022/05/01 00:01:11;;;;;;;7.57;5.10;;;9.90;99.90;;;;;;5074948;28;20031;-84
2022/05/01 00:03:36;;;;;;;7.25;4.88;;;9.90;99.90;;;;;;5087793;28;20081;-82
2022/05/01 00:06:07;;;;;;;6.97;4.90;;;9.90;99.90;;;;;;5086021;28;20020;-81
2022/05/01 00:08:35;;;;;;;6.60;5.00;;;10.00;99.90;;;;;;5087742;28;20024;-82
2022/05/01 00:11:01;;;;;;;7.85;4.85;;;10.00;99.90;;;;;;5069311;28;20016;-82
2022/05/01 00:13:28;;;;;;;7.00;4.63;;;10.00;99.90;;;;;;5086059;28;20478;-82
2022/05/01 00:15:54;;;;;;;8.00;5.10;;;10.00;99.90;;;;;;5086115;28;20521;-82
2022/05/01 00:18:20;;;;;;;7.22;5.15;;;10.00;99.90;;;;;;5069523;28;20065;-81
2022/05/01 00:20:46;;;;;;;7.53;4.85;;;9.90;99.90;;;;;;5087457;28;20032;-82
2022/05/01 00:23:12;;;;;;;7.13;5.65;;;9.90;99.90;;;;;;5087453;28;20059;-83
2022/05/01 00:25:41;;;;;;;7.43;5.93;;;9.90;99.90;;;;;;5069612;28;20023;-82
2022/05/01 00:28:07;;;;;;;8.60;5.88;;;9.90;99.90;;;;;;5069162;28;20028;-82
2022/05/01 00:30:33;;;;;;;6.93;5.25;;;9.80;99.90;;;;;;5069529;28;20080;-82
2022/05/01 00:38:27;;;;;;;8.80;5.57;;;9.80;99.90;;;;;;5087620;28;20126;-82
2022/05/01 00:40:54;;;;;;;7.43;5.72;;;9.80;99.90;;;;;;5087414;28;20107;-83
2022/05/01 00:43:20;;;;;;;8.00;5.63;;;9.80;99.90;;;;;;5069258;28;20047;-83
2022/05/01 00:45:45;;;;;;;7.57;5.30;;;9.70;99.90;;;;;;5086586;28;20067;-82
2022/05/01 00:48:11;;;;;;;7.18;5.60;;;9.70;99.90;;;;;;5090021;28;20374;-83
2022/05/01 00:50:37;;;;;;;7.70;5.80;;;9.70;99.90;;;;;;5090998;28;20032;-82
2022/05/01 00:53:05;;;;;;;8.38;6.05;;;9.70;99.90;;;;;;5089803;28;20111;-82
2022/05/01 00:55:32;;;;;;;6.45;5.07;;;9.80;99.90;;;;;;5072713;28;20028;-83
2022/05/01 00:57:59;;;;;;;7.40;5.10;;;9.70;99.90;;;;;;5072714;28;20127;-83
2022/05/01 01:00:25;;;;;;;8.63;5.93;;;9.80;99.90;;;;;;5072832;28;20501;-82
2022/05/01 01:02:50;;;;;;;7.35;4.93;;;9.80;99.90;;;;;;5089177;28;20030;-82
2022/05/01 01:05:16;;;;;;;7.65;5.50;;;9.70;99.90;;;;;;5072801;28;20111;-82
2022/05/01 01:07:42;;;;;;;7.45;5.35;;;9.70;99.90;;;;;;5076613;28;20039;-83
2022/05/01 01:10:08;;;;;;;8.32;5.70;;;9.70;99.90;;;;;;5069166;28;20028;-83
2022/05/01 01:15:18;;;;;;;7.00;5.75;;;9.60;99.90;;;;;;5079950;28;20110;-82
2022/05/01 01:17:46;;;;;;;10.55;5.90;;;9.60;99.90;;;;;;5072807;28;20091;-82
2022/05/01 01:20:15;;;;;;;7.35;5.38;;;9.60;99.90;;;;;;5072886;28;20028;-82
2022/05/01 01:22:47;;;;;;;7.05;5.82;;;9.60;99.90;;;;;;5077316;28;20450;-81
2022/05/01 01:25:13;;;;;;;7.78;5.65;;;9.60;99.90;;;;;;5096057;28;20062;-83
2022/05/01 01:27:40;;;;;;;7.13;5.57;;;9.60;99.90;;;;;;5078121;28;20478;-82
2022/05/01 01:32:51;;;;;;;8.35;6.18;;;9.60;99.90;;;;;;5097379;28;20125;-84
2022/05/01 01:35:23;;;;;;;7.28;5.30;;;9.60;99.90;;;;;;5095873;28;20036;-83
2022/05/01 01:37:52;;;;;;;9.20;5.70;;;9.60;99.90;;;;;;5083075;28;20053;-83
2022/05/01 01:40:23;;;;;;;7.28;5.68;;;9.60;99.90;;;;;;5081151;28;20016;-82
2022/05/01 01:42:52;;;;;;;8.13;6.07;;;9.60;99.90;;;;;;5072102;28;20032;-83
2022/05/01 01:45:19;;;;;;;8.10;6.07;;;9.50;99.90;;;;;;5082961;28;20020;-82
2022/05/01 01:47:44;;;;;;;7.95;5.82;;;9.50;99.90;;;;;;5069835;28;20050;-83
2022/05/01 01:50:13;;;;;;;7.43;5.22;;;9.50;99.90;;;;;;5084624;28;20039;-82
2022/05/01 01:52:39;;;;;;;8.77;5.63;;;9.60;99.90;;;;;;5092359;28;20058;-83
2022/05/01 01:55:05;;;;;;;7.13;5.68;;;9.50;99.90;;;;;;5084281;28;20047;-82
2022/05/01 01:57:31;;;;;;;8.27;5.80;;;9.60;99.90;;;;;;5091197;28;20032;-82
2022/05/01 01:59:56;;;;;;;7.60;5.75;;;9.60;99.90;;;;;;5074153;28;20076;-83
2022/05/01 02:02:22;;;;;;;7.10;5.35;;;9.50;99.90;;;;;;5082674;28;20073;-83
2022/05/01 02:04:47;;;;;;;7.55;6.10;;;9.60;99.90;;;;;;5079542;28;20024;-82
2022/05/01 02:07:13;;;;;;;8.35;6.38;;;9.50;99.90;;;;;;5069347;28;20016;-82
2022/05/01 02:09:39;;;;;;;8.02;5.97;;;9.50;99.90;;;;;;5096703;28;20591;-82
2022/05/01 02:12:08;;;;;;;6.97;5.35;;;9.40;99.90;;;;;;5082397;28;20085;-82
2022/05/01 02:14:35;;;;;;;8.20;6.10;;;9.40;99.90;;;;;;5090824;28;20040;-82
2022/05/01 02:17:02;;;;;;;9.70;6.30;;;9.40;99.90;;;;;;5068473;28;20012;-82
2022/05/01 02:19:31;;;;;;;9.38;7.07;;;9.40;99.90;;;;;;5078593;28;20028;-81
2022/05/01 02:21:57;;;;;;;8.80;6.63;;;9.30;99.90;;;;;;5082579;28;20044;-83
2022/05/01 02:24:25;;;;;;;9.32;6.93;;;9.30;99.90;;;;;;5066911;28;20032;-83
2022/05/01 02:26:52;;;;;;;7.85;6.18;;;9.30;99.90;;;;;;5066252;28;20012;-82
2022/05/01 02:29:18;;;;;;;7.93;6.40;;;9.30;99.90;;;;;;5085062;28;20027;-83
2022/05/01 02:31:44;;;;;;;9.75;6.70;;;9.30;99.90;;;;;;5084624;28;20366;-82
2022/05/01 02:34:11;;;;;;;8.18;6.35;;;9.30;99.90;;;;;;5082438;28;20054;-82
2022/05/01 02:36:38;;;;;;;8.98;6.45;;;9.30;99.90;;;;;;5066900;28;20027;-82
2022/05/01 02:39:05;;;;;;;7.80;6.63;;;9.30;99.90;;;;;;5081252;28;20394;-82
2022/05/01 02:41:31;;;;;;;7.90;6.03;;;9.30;99.90;;;;;;5085548;28;20020;-81
2022/05/01 02:43:58;;;;;;;7.80;6.18;;;9.30;99.90;;;;;;5069047;28;20024;-82
2022/05/01 02:46:27;;;;;;;8.32;6.60;;;9.30;99.90;;;;;;5085492;28;20153;-82
2022/05/01 02:48:52;;;;;;;8.55;6.40;;;9.20;99.90;;;;;;5083075;28;20016;-82
2022/05/01 02:51:18;;;;;;;8.75;6.40;;;9.10;99.90;;;;;;5088264;28;20031;-81
2022/05/01 02:53:43;;;;;;;9.52;6.50;;;9.10;99.90;;;;;;5091304;28;20036;-81
2022/05/01 02:56:09;;;;;;;7.28;6.18;;;9.10;99.90;;;;;;5091297;28;20020;-82
2022/05/01 02:58:35;;;;;;;10.43;6.72;;;9.20;99.90;;;;;;5091212;28;20024;-82
2022/05/01 03:01:01;;;;;;;9.07;6.50;;;9.20;99.90;;;;;;5074425;28;20012;-83
2022/05/01 03:03:27;;;;;;;8.52;6.43;;;9.20;99.90;;;;;;5092451;28;20082;-81
2022/05/01 03:05:53;;;;;;;9.40;6.47;;;9.10;99.90;;;;;;5093144;28;20035;-81
2022/05/01 03:08:19;;;;;;;9.65;6.90;;;9.10;99.90;;;;;;5092433;28;20055;-82
2022/05/01 03:10:45;;;;;;;7.57;5.72;;;9.10;99.90;;;;;;5091873;28;20044;-81
2022/05/01 03:13:11;;;;;;;9.27;6.57;;;9.10;99.90;;;;;;5094269;28;20027;-82
2022/05/01 03:15:37;;;;;;;9.38;6.40;;;9.10;99.90;;;;;;5092022;28;20047;-81
2022/05/01 03:23:32;;;;;;;9.35;7.28;;;9.00;99.90;;;;;;5094250;28;20397;-83
2022/05/01 03:25:58;;;;;;;7.55;5.95;;;9.00;99.90;;;;;;5092313;28;20012;-81
2022/05/01 03:28:24;;;;;;;9.07;7.15;;;8.90;99.90;;;;;;5093262;28;20028;-81
2022/05/01 03:30:50;;;;;;;9.52;7.22;;;8.90;99.90;;;;;;5092538;28;20016;-81
2022/05/01 03:33:21;;;;;;;9.23;7.15;;;8.90;99.90;;;;;;5074998;28;20024;-82
2022/05/01 03:35:48;;;;;;;12.25;7.43;;;9.00;99.90;;;;;;5096479;28;20024;-81
2022/05/01 03:38:15;;;;;;;9.18;6.85;;;8.90;99.90;;;;;;5075704;28;20039;-82
2022/05/01 03:40:47;;;;;;;9.90;7.05;;;8.80;99.90;;;;;;5075174;28;20048;-82
2022/05/01 03:43:15;;;;;;;9.02;6.70;;;8.80;99.90;;;;;;5075338;28;20024;-82
2022/05/01 03:45:41;;;;;;;10.05;6.97;;;8.80;99.90;;;;;;5075015;28;20055;-82
2022/05/01 03:48:07;;;;;;;9.13;6.90;;;8.80;99.90;;;;;;5091823;28;20020;-83
2022/05/01 03:50:33;;;;;;;8.02;6.85;;;8.80;99.90;;;;;;5075235;28;20036;-81
2022/05/01 03:52:59;;;;;;;9.20;6.50;;;8.80;99.90;;;;;;5093138;28;20380;-82
2022/05/01 03:55:25;;;;;;;8.70;6.70;;;8.80;99.90;;;;;;5091907;28;20040;-83
2022/05/01 03:57:50;;;;;;;9.68;7.22;;;8.80;99.90;;;;;;5091989;28;20034;-81
2022/05/01 04:00:19;;;;;;;8.27;6.30;;;8.80;99.90;;;;;;5091525;28;20035;-82
2022/05/01 04:02:45;;;;;;;7.78;6.15;;;8.70;99.90;;;;;;5092013;28;20458;-81
2022/05/01 04:05:15;;;;;;;8.07;5.90;;;8.80;99.90;;;;;;5075197;28;20114;-82
2022/05/01 04:07:42;;;;;;;10.18;7.25;;;8.80;99.90;;;;;;5074675;28;20058;-82
2022/05/01 04:10:08;;;;;;;10.10;7.40;;;8.70;99.90;;;;;;5093130;28;20028;-81
2022/05/01 04:12:38;;;;;;;9.52;8.00;;;8.70;99.90;;;;;;5074810;28;20070;-82
2022/05/01 04:15:08;;;;;;;11.90;8.32;;;8.70;99.90;;;;;;5071360;28;20406;-82
2022/05/01 04:17:39;;;;;;;10.02;7.63;;;8.70;99.90;;;;;;5071159;28;20428;-82
2022/05/01 04:20:12;;;;;;;10.70;8.00;;;8.60;99.90;;;;;;5072596;28;20060;-82
2022/05/01 04:22:42;;;;;;;10.95;8.40;;;8.60;99.90;;;;;;5074191;28;20092;-83
2022/05/01 04:25:19;;;;;;;11.60;8.82;;;8.60;99.90;;;;;;5075604;28;20394;-83
2022/05/01 04:27:46;;;;;;;10.02;7.50;;;8.60;99.90;;;;;;5075856;28;20028;-82
2022/05/01 04:30:13;;;;;;;10.77;8.02;;;8.60;99.90;;;;;;5075094;28;20093;-83
2022/05/01 04:32:52;;;;;;;10.25;8.05;;;8.60;99.90;;;;;;5076589;28;20028;-82
2022/05/01 04:35:22;;;;;;;8.90;7.03;;;8.60;99.90;;;;;;5075073;28;20509;-82
2022/05/01 04:37:48;;;;;;;9.07;6.90;;;8.70;99.90;;;;;;5076154;28;20016;-83
2022/05/01 04:40:14;;;;;;;9.40;7.32;;;8.70;99.90;;;;;;5074885;28;20036;-83
2022/05/01 04:42:41;;;;;;;10.07;7.47;;;8.70;99.90;;;;;;5076390;28;20021;-82
2022/05/01 04:45:08;;;;;;;9.90;7.60;;;8.70;99.90;;;;;;5074758;28;20163;-81
2022/05/01 04:47:34;;;;;;;9.13;7.00;;;8.70;99.90;;;;;;5076049;28;20021;-82
2022/05/01 04:50:00;;;;;;;8.30;6.68;;;8.80;99.90;;;;;;5075956;28;20051;-81
2022/05/01 04:52:25;;;;;;;10.30;7.40;;;8.80;99.90;;;;;;5075482;28;20097;-81
2022/05/01 04:54:51;;;;;;;8.48;6.88;;;8.80;99.90;;;;;;5091466;28;20086;-81
2022/05/01 04:57:17;;;;;;;9.95;7.65;;;8.80;99.90;;;;;;5075430;28;20028;-82
2022/05/01 04:59:43;;;;;;;8.43;6.78;;;8.90;99.90;;;;;;5075817;28;20052;-81
2022/05/01 05:02:09;;;;;;;10.50;7.57;;;8.90;99.90;;;;;;5091508;28;20120;-82
2022/05/01 05:04:36;;;;;;;9.00;7.00;;;8.90;99.90;;;;;;5091385;28;20572;-82
2022/05/01 05:07:01;;;;;;;9.68;6.78;;;8.90;99.90;;;;;;5091679;28;20024;-82
2022/05/01 05:12:11;;;;;;;8.35;6.63;;;8.90;99.90;;;;;;5076047;28;20051;-81
2022/05/01 05:14:37;;;;;;;11.80;7.13;;;8.90;99.90;;;;;;5083221;28;20496;-82
2022/05/01 05:17:06;;;;;;;8.88;6.90;;;9.00;99.90;;;;;;5095656;28;20016;-81
2022/05/01 05:19:34;;;;;;;7.85;6.43;;;9.00;99.90;;;;;;5094158;28;20093;-82
2022/05/01 05:21:59;;;;;;;11.23;7.13;;;9.00;99.90;;;;;;5095579;28;20347;-82
2022/05/01 05:24:25;;;;;;;10.32;8.52;;;9.00;99.90;;;;;;5095672;28;20024;-82
2022/05/01 05:26:51;;;;;;;9.85;7.90;;;9.10;99.90;;;;;;5095336;28;20051;-82
2022/05/01 05:29:16;;;;;;;11.10;7.50;;;9.10;99.90;;;;;;5094326;28;20025;-81
2022/05/01 05:31:42;;;;;;;9.30;7.55;;;9.10;99.90;;;;;;5093827;28;20012;-81
2022/05/01 05:34:09;;;;;;;9.68;7.07;;;9.10;99.90;;;;;;5093685;28;20067;-81
2022/05/01 05:36:35;;;;;;;7.95;6.90;;;9.10;99.90;;;;;;5094220;28;20043;-81
2022/05/01 05:39:00;;;;;;;8.88;6.72;;;9.20;99.90;;;;;;5093653;28;20024;-81
2022/05/01 05:41:26;;;;;;;8.65;7.00;;;9.20;99.90;;;;;;5093938;28;20026;-82
2022/05/01 05:43:51;;;;;;;8.20;6.82;;;9.30;99.90;;;;;;5094187;28;20032;-82
2022/05/01 05:46:17;;;;;;;9.30;7.10;;;9.40;99.90;;;;;;5093896;28;20496;-82
2022/05/01 05:48:43;;;;;;;7.57;6.65;;;9.40;99.90;;;;;;5095131;28;20523;-82
2022/05/01 05:51:09;;;;;;;7.88;6.45;;;9.50;99.90;;;;;;5094254;28;20032;-82
2022/05/01 05:53:34;;;;;;;9.43;7.18;;;9.50;99.90;;;;;;5094120;28;20051;-82
2022/05/01 05:56:00;;;;;;;9.73;7.20;;;9.60;99.90;;;;;;5094861;28;20485;-81
2022/05/01 05:58:25;;;;;;;9.32;7.03;;;9.70;99.90;;;;;;5095051;28;20032;-82
2022/05/01 06:00:51;;;;;;;11.38;7.57;;;9.70;99.90;;;;;;5093896;28;20031;-81
2022/05/01 06:03:19;;;;;;;10.65;7.72;;;9.80;99.90;;;;;;5093752;28;20024;-82
2022/05/01 06:05:47;;;;;;;8.95;6.82;;;9.80;99.90;;;;;;5094999;28;20024;-82
2022/05/01 06:08:15;;;;;;;8.13;6.45;;;9.90;99.90;;;;;;5093348;28;20024;-82
2022/05/01 06:10:41;;;;;;;8.23;6.57;;;9.90;99.90;;;;;;5093243;28;20020;-82
2022/05/01 06:13:06;;;;;;;8.73;7.20;;;10.10;99.90;;;;;;5094861;28;20024;-82
2022/05/01 06:15:32;;;;;;;9.90;7.20;;;10.10;99.90;;;;;;5093295;28;20089;-81
2022/05/01 06:17:58;;;;;;;9.57;6.53;;;10.20;99.90;;;;;;5094957;28;20074;-81
2022/05/01 06:20:23;;;;;;;9.50;6.97;;;10.30;99.90;;;;;;5093508;28;20039;-81
2022/05/01 06:22:52;;;;;;;8.82;6.93;;;10.40;99.90;;;;;;5093290;28;20481;-82
2022/05/01 06:25:18;;;;;;;8.70;6.85;;;10.60;99.90;;;;;;5094598;28;20024;-81
2022/05/01 06:27:44;;;;;;;8.25;6.93;;;10.70;99.90;;;;;;5093481;28;20035;-82
2022/05/01 06:30:11;;;;;;;7.43;6.10;;;10.80;99.90;;;;;;5094445;28;20024;-81
2022/05/01 06:32:42;;;;;;;9.98;7.78;;;10.90;99.90;;;;;;5076117;28;20030;-81
2022/05/01 06:35:08;;;;;;;8.68;6.85;;;11.00;99.90;;;;;;5076355;28;20361;-80
2022/05/01 06:37:38;;;;;;;9.63;7.50;;;11.00;99.90;;;;;;5091404;28;20016;-80
2022/05/01 06:40:05;;;;;;;10.30;8.48;;;11.10;99.90;;;;;;5072797;28;20028;-82
2022/05/01 06:42:33;;;;;;;9.70;7.40;;;11.10;99.90;;;;;;5098468;28;20031;-81
2022/05/01 06:44:58;;;;;;;9.43;7.85;;;11.20;99.90;;;;;;5082157;28;20016;-82
2022/05/01 06:47:24;;;;;;;8.95;7.40;;;11.30;99.90;;;;;;5091078;28;20024;-83
2022/05/01 06:49:50;;;;;;;10.25;7.07;;;11.30;99.90;;;;;;5091316;28;20488;-82
2022/05/01 06:52:23;;;;;;;10.52;8.20;;;11.40;99.90;;;;;;5073894;28;20514;-82
2022/05/01 06:54:52;;;;;;;9.55;7.00;;;11.50;99.90;;;;;;5089326;28;20498;-82
2022/05/01 06:57:17;;;;;;;9.85;7.20;;;11.60;99.90;;;;;;5091445;28;20024;-83
2022/05/01 06:59:43;;;;;;;9.05;7.68;;;11.70;99.90;;;;;;5089357;28;20038;-82
2022/05/01 07:02:08;;;;;;;12.02;7.72;;;11.80;99.90;;;;;;5089283;28;20107;-83
2022/05/01 07:04:34;;;;;;;9.98;7.32;;;11.90;99.90;;;;;;5089442;28;20155;-83
2022/05/01 07:07:00;;;;;;;10.48;6.85;;;12.00;99.90;;;;;;5088847;28;20032;-83
2022/05/01 07:09:25;;;;;;;9.20;6.90;;;12.10;99.90;;;;;;5089343;28;20039;-82
2022/05/01 07:11:51;;;;;;;8.60;6.30;;;12.10;99.90;;;;;;5090448;28;20024;-82
2022/05/01 07:14:17;;;;;;;10.25;7.60;;;12.20;99.90;;;;;;5085194;28;20507;-83
2022/05/01 07:16:42;;;;;;;10.50;7.28;;;12.30;99.90;;;;;;5070118;28;20031;-83
2022/05/01 07:19:08;;;;;;;10.60;8.25;;;12.40;99.90;;;;;;5085445;28;20036;-82
2022/05/01 07:21:34;;;;;;;9.55;7.53;;;12.40;99.90;;;;;;5069964;28;20110;-83
2022/05/01 07:24:00;;;;;;;11.07;7.47;;;12.50;99.90;;;;;;5085790;28;20066;-83
2022/05/01 07:26:26;;;;;;;9.15;7.32;;;12.60;99.90;;;;;;5069844;28;20016;-82
2022/05/01 07:28:52;;;;;;;8.35;6.93;;;12.50;99.90;;;;;;5085264;28;20113;-84
2022/05/01 07:31:18;;;;;;;10.43;7.80;;;12.60;99.90;;;;;;5085581;28;20063;-83
2022/05/01 07:33:45;;;;;;;11.25;7.78;;;12.60;99.90;;;;;;5085465;28;20496;-81
2022/05/01 07:36:11;;;;;;;10.77;7.85;;;12.70;99.90;;;;;;5085458;28;20425;-82
2022/05/01 07:38:37;;;;;;;11.35;7.55;;;12.80;99.90;;;;;;5085574;28;20572;-80
2022/05/01 07:41:02;;;;;;;9.35;7.57;;;12.90;99.90;;;;;;5084890;28;20085;-82
2022/05/01 07:43:29;;;;;;;9.80;7.10;;;12.90;99.90;;;;;;5084790;28;20020;-82
2022/05/01 07:45:54;;;;;;;9.43;6.88;;;13.00;99.90;;;;;;5085341;28;20040;-81
2022/05/01 07:48:20;;;;;;;9.25;7.05;;;13.10;99.90;;;;;;5070011;28;20359;-81
2022/05/01 07:50:46;;;;;;;8.55;6.65;;;13.20;99.90;;;;;;5085387;28;20047;-81
2022/05/01 07:53:13;;;;;;;8.60;6.97;;;13.30;99.90;;;;;;5085234;28;20482;-82
2022/05/01 07:55:39;;;;;;;11.60;6.85;;;13.40;99.90;;;;;;5086081;28;20405;-82
2022/05/01 07:58:04;;;;;;;8.32;6.38;;;13.60;99.90;;;;;;5088488;28;20028;-83
2022/05/01 08:00:30;;;;;;;10.85;7.85;;;13.70;99.90;;;;;;5086175;28;20078;-83
2022/05/01 08:05:40;;;;;;;7.82;6.18;;;13.90;99.90;;;;;;5070428;28;20051;-83
2022/05/01 08:08:06;;;;;;;10.45;6.50;;;14.10;99.90;;;;;;5070017;28;20535;-85
2022/05/01 08:10:33;;;;;;;8.45;5.90;;;14.10;99.90;;;;;;5070238;28;20037;-84
2022/05/01 08:12:58;;;;;;;7.65;6.38;;;14.20;99.90;;;;;;5070058;28;20024;-83
2022/05/01 08:15:24;;;;;;;7.57;6.25;;;14.40;99.90;;;;;;5083571;28;20520;-82
2022/05/01 08:17:50;;;;;;;7.38;5.63;;;14.50;99.90;;;;;;5088539;28;20050;-82
2022/05/01 08:23:09;;;;;;;9.02;6.30;;;14.70;99.90;;;;;;5090373;28;20090;-82
2022/05/01 08:25:37;;;;;;;8.80;6.13;;;14.90;99.90;;;;;;5071139;28;20385;-82
2022/05/01 08:28:03;;;;;;;11.73;6.13;;;14.80;99.90;;;;;;5089774;28;20020;-82
2022/05/01 08:30:28;;;;;;;6.50;5.55;;;14.90;99.90;;;;;;5087986;28;20489;-83
2022/05/01 08:32:55;;;;;;;7.90;5.97;;;15.10;99.90;;;;;;5088028;28;20522;-83
2022/05/01 08:35:20;;;;;;;9.13;7.07;;;15.20;99.90;;;;;;5087973;28;20032;-82
2022/05/01 08:37:46;;;;;;;9.27;6.45;;;15.30;99.90;;;;;;5089291;28;20024;-83
2022/05/01 08:40:12;;;;;;;7.18;5.70;;;15.30;99.90;;;;;;5088153;28;20122;-83
2022/05/01 08:42:39;;;;;;;8.40;6.57;;;15.40;99.90;;;;;;5089790;28;20103;-83
2022/05/01 08:45:09;;;;;;;8.10;6.03;;;15.50;99.90;;;;;;5071749;28;20028;-84
2022/05/01 08:47:39;;;;;;;8.48;6.18;;;15.50;99.90;;;;;;5089373;28;20043;-82
2022/05/01 08:50:08;;;;;;;7.82;5.82;;;15.60;99.90;;;;;;5070996;28;20028;-83
2022/05/01 08:52:37;;;;;;;8.25;5.60;;;15.80;99.90;;;;;;5071016;28;20055;-84
2022/05/01 08:55:05;;;;;;;9.10;6.30;;;16.00;99.90;;;;;;5089608;28;20035;-83
2022/05/01 08:57:33;;;;;;;8.68;5.60;;;16.20;99.90;;;;;;5070608;28;20476;-83
2022/05/01 08:59:59;;;;;;;7.43;5.13;;;16.30;99.90;;;;;;5070932;28;20501;-82
2022/05/01 09:02:25;;;;;;;7.10;5.70;;;16.40;99.90;;;;;;5088808;28;20028;-85
2022/05/01 09:04:51;;;;;;;6.55;5.60;;;16.40;99.90;;;;;;5080049;28;20029;-82
2022/05/01 09:07:17;;;;;;;7.10;5.18;;;16.20;99.90;;;;;;5076260;28;20621;-83
2022/05/01 09:09:42;;;;;;;10.15;6.30;;;16.00;99.90;;;;;;5080871;28;20158;-83
2022/05/01 09:14:54;;;;;;;8.85;5.75;;;15.70;99.90;;;;;;5092345;28;20727;-83
2022/05/01 09:17:21;;;;;;;7.80;6.20;;;15.60;99.90;;;;;;5092580;28;20025;-84
2022/05/01 09:19:53;;;;;;;7.75;6.00;;;15.50;99.90;;;;;;5074239;28;20024;-82
2022/05/01 09:22:20;;;;;;;9.25;5.20;;;15.30;99.90;;;;;;5074336;28;20028;-81
2022/05/01 09:24:52;;;;;;;7.32;5.05;;;15.10;99.90;;;;;;5092861;28;20028;-82
2022/05/01 09:27:25;;;;;;;5.85;4.70;;;15.10;99.90;;;;;;5074047;28;20457;-81
2022/05/01 09:30:07;;;;;;;6.88;5.13;;;15.00;99.90;;;;;;5090561;28;20114;-80
2022/05/01 09:32:37;;;;;;;6.22;4.57;;;14.90;99.90;;;;;;5074575;28;20170;-81
2022/05/01 09:35:03;;;;;;;7.25;5.32;;;14.80;99.90;;;;;;5091998;28;20036;-81
2022/05/01 09:37:29;;;;;;;7.75;4.90;;;14.70;99.90;;;;;;5092100;28;20520;-82
2022/05/01 09:39:55;;;;;;;6.88;5.15;;;14.60;99.90;;;;;;5092351;28;20149;-82
2022/05/01 09:42:24;;;;;;;7.63;5.50;;;14.60;99.90;;;;;;5090949;28;20061;-81
2022/05/01 09:45:14;;;;;;;7.50;5.85;;;14.50;99.90;;;;;;5090676;28;20059;-78
2022/05/01 09:47:45;;;;;;;9.35;6.20;;;14.40;99.90;;;;;;5075319;28;20024;-88
2022/05/01 09:50:13;;;;;;;10.20;5.65;;;14.30;99.90;;;;;;5056499;28;20051;-80
2022/05/01 09:52:59;;;;;;;6.97;5.60;;;14.10;99.90;;;;;;5070961;28;20027;-80
2022/05/01 09:55:26;;;;;;;11.75;6.60;;;14.10;99.90;;;;;;5079726;28;20123;-80
2022/05/01 09:58:12;;;;;;;8.50;6.03;;;14.00;99.90;;;;;;5078870;28;20089;-80
2022/05/01 10:00:44;;;;;;;7.43;5.30;;;13.90;99.90;;;;;;5081712;28;20035;-81
2022/05/01 10:03:40;;;;;;;6.80;4.93;;;13.90;99.90;;;;;;5079653;28;20078;-80
2022/05/01 10:06:09;;;;;;;6.85;4.13;;;13.80;99.90;;;;;;5073509;28;20085;-80
2022/05/01 10:08:38;;;;;;;7.03;4.65;;;13.70;99.90;;;;;;5091294;28;20128;-80
2022/05/01 10:11:04;;;;;;;6.25;4.28;;;13.80;99.90;;;;;;5073594;28;20119;-81
2022/05/01 10:13:30;;;;;;;5.97;4.22;;;13.70;99.90;;;;;;5089179;28;20052;-83
2022/05/01 10:15:56;;;;;;;5.43;4.35;;;13.80;99.90;;;;;;5072850;28;20044;-81
2022/05/01 10:18:23;;;;;;;5.53;4.38;;;13.70;99.90;;;;;;5089647;28;20088;-82
2022/05/01 10:20:49;;;;;;;5.93;4.63;;;13.70;99.90;;;;;;5091953;28;20036;-82
2022/05/01 10:23:16;;;;;;;7.50;4.80;;;13.70;99.90;;;;;;5092922;28;20016;-83
2022/05/01 10:26:09;;;;;;;7.50;4.18;;;13.70;99.90;;;;;;5091232;28;20463;-83
2022/05/01 10:29:04;;;;;;;6.18;3.75;;;13.70;99.90;;;;;;5072952;28;20090;-82
2022/05/01 10:34:36;;;;;;;5.47;4.35;;;13.80;99.90;;;;;;5092794;28;20054;-84
2022/05/01 10:37:48;;;;;;;6.53;4.20;;;13.90;99.90;;;;;;5074439;28;20020;-82
2022/05/01 10:40:14;;;;;;;6.95;4.90;;;14.00;99.90;;;;;;4993369;28;20080;-83
2022/05/01 10:42:45;;;;;;;8.05;5.25;;;14.10;99.90;;;;;;5010012;28;20053;-82
2022/05/01 10:45:23;;;;;;;5.90;4.72;;;14.10;99.90;;;;;;5049190;28;20363;-82
2022/05/01 10:47:54;;;;;;;5.72;4.35;;;14.20;99.90;;;;;;5072274;28;20051;-83
2022/05/01 10:50:26;;;;;;;5.80;4.38;;;14.40;99.90;;;;;;5072156;28;20032;-84
2022/05/01 10:53:08;;;;;;;5.68;4.30;;;14.50;99.90;;;;;;5072822;28;20039;-83
2022/05/01 10:55:52;;;;;;;6.40;4.45;;;14.60;99.90;;;;;;5091548;28;20036;-85
2022/05/01 10:58:26;;;;;;;5.82;4.20;;;14.70;99.90;;;;;;5072800;28;20032;-84
2022/05/01 11:00:53;;;;;;;5.72;4.22;;;14.90;99.90;;;;;;5090702;28;20174;-82
2022/05/01 11:03:27;;;;;;;5.55;3.78;;;15.00;99.90;;;;;;5094394;28;20087;-85
2022/05/01 11:06:01;;;;;;;5.43;3.75;;;15.20;99.90;;;;;;5073470;28;20026;-83
2022/05/01 11:08:31;;;;;;;5.68;4.30;;;15.30;99.90;;;;;;5088146;28;20036;-83
2022/05/01 11:11:00;;;;;;;7.13;4.60;;;15.30;99.90;;;;;;5072440;28;20024;-83
2022/05/01 11:13:33;;;;;;;7.78;5.18;;;15.30;99.90;;;;;;5071838;28;20016;-82
2022/05/01 11:16:00;;;;;;;7.15;4.55;;;15.40;99.90;;;;;;5088779;28;20036;-81
2022/05/01 11:18:39;;;;;;;6.32;4.68;;;15.40;99.90;;;;;;5055576;28;20051;-82
2022/05/01 11:21:28;;;;;;;7.05;4.15;;;15.50;99.90;;;;;;5079030;28;20034;-81
2022/05/01 11:24:02;;;;;;;7.60;4.80;;;15.60;99.90;;;;;;5066881;28;20043;-81
2022/05/01 11:26:28;;;;;;;7.85;4.55;;;15.70;99.90;;;;;;5078641;28;20035;-82
2022/05/01 11:29:13;;;;;;;5.13;3.67;;;16.20;99.90;;;;;;5078500;28;20017;-82
2022/05/01 11:31:39;;;;;;;5.47;3.95;;;16.70;99.60;;;;;;5089426;28;20066;-82
2022/05/01 11:34:17;;;;;;;6.13;4.93;;;17.30;99.10;;;;;;5071704;28;20082;-81
2022/05/01 11:36:57;;;;;;;5.63;4.38;;;17.70;98.20;;;;;;5071317;28;20058;-81
2022/05/01 11:39:54;;;;;;;4.15;3.38;;;18.20;98.10;;;;;;5071495;28;20043;-82
2022/05/01 11:42:35;;;;;;;5.90;4.30;;;18.80;97.60;;;;;;5071441;28;20350;-86
2022/05/01 11:45:04;;;;;;;6.60;4.18;;;19.30;96.60;;;;;;5054853;28;20113;-86
2022/05/01 11:47:33;;;;;;;6.28;3.80;;;19.40;96.10;;;;;;5064173;28;20028;-83
2022/05/01 11:49:59;;;;;;;4.28;3.10;;;19.60;95.80;;;;;;5056624;28;20550;-83
2022/05/01 11:52:25;;;;;;;7.00;4.03;;;19.60;95.70;;;;;;5051642;28;20024;-84
2022/05/01 11:55:06;;;;;;;5.53;3.78;;;19.60;94.90;;;;;;5065915;28;20035;-84
2022/05/01 12:03:04;;;;;;;5.35;3.45;;;19.50;93.50;;;;;;5073013;28;20764;-83
2022/05/01 12:05:31;;;;;;;4.95;3.25;;;19.60;93.40;;;;;;5062958;28;20069;-85
2022/05/01 12:07:57;;;;;;;4.70;3.50;;;19.60;93.50;;;;;;5064543;28;20021;-83
2022/05/01 12:10:23;;;;;;;4.20;3.10;;;19.80;93.60;;;;;;5068445;28;20046;-82
2022/05/01 12:12:49;;;;;;;5.00;2.95;;;20.10;93.30;;;;;;5083337;28;20035;-83
2022/05/01 12:15:15;;;;;;;5.20;3.35;;;20.40;92.70;;;;;;5065595;28;20051;-83
2022/05/01 12:17:42;;;;;;;5.47;3.60;;;20.50;92.00;;;;;;5069582;28;20107;-87
2022/05/01 12:20:09;;;;;;;5.65;3.65;;;20.50;91.40;;;;;;5069901;28;20251;-82
2022/05/01 12:22:37;;;;;;;5.03;3.70;;;20.50;90.90;;;;;;5067760;28;20032;-83
2022/05/01 12:25:10;;;;;;;4.25;3.20;;;20.40;90.90;;;;;;5087941;28;20060;-83
2022/05/01 12:27:40;;;;;;;4.70;3.63;;;20.30;90.70;;;;;;5069283;28;20065;-83
2022/05/01 12:30:08;;;;;;;5.38;3.42;;;20.30;91.10;;;;;;5064266;28;20044;-83
2022/05/01 12:32:35;;;;;;;5.53;3.40;;;20.50;90.90;;;;;;5070141;28;20039;-83
2022/05/01 12:35:06;;;;;;;4.25;2.70;;;20.60;90.60;;;;;;5065747;28;20097;-82
2022/05/01 12:37:36;;;;;;;4.32;2.90;;;20.60;90.80;;;;;;5081788;28;20401;-81
2022/05/01 12:40:12;;;;;;;4.65;3.15;;;20.60;90.60;;;;;;5062114;28;20051;-82
2022/05/01 12:45:44;;;;;;;4.45;3.00;;;20.60;90.40;;;;;;5077133;28;20074;-83
2022/05/01 12:48:13;;;;;;;5.20;4.15;;;20.80;90.50;;;;;;5072124;28;20039;-86
2022/05/01 12:50:40;;;;;;;4.90;3.60;;;21.20;87.90;;;;;;5078548;28;20029;-82
2022/05/01 12:53:35;;;;;;;5.07;4.30;;;21.10;87.40;;;;;;5061069;28;20375;-82
2022/05/01 12:56:16;;;;;;;5.55;3.38;;;21.00;85.70;;;;;;5070702;28;20032;-83
2022/05/01 12:58:41;;;;;;;3.65;2.92;;;20.70;87.80;;;;;;5061667;28;20665;-83
2022/05/01 13:01:20;;;;;;;4.63;3.70;;;20.60;88.60;;;;;;5060191;28;20119;-85
2022/05/01 13:03:46;;;;;;;5.50;3.92;;;20.60;87.50;;;;;;5063068;28;20466;-86
2022/05/01 13:06:16;;;;;;;5.22;3.63;;;20.30;87.00;;;;;;5080446;28;20046;-84
2022/05/01 13:08:52;;;;;;;5.78;3.95;;;20.10;86.50;;;;;;5064028;28;20050;-82
2022/05/01 13:11:23;;;;;;;5.57;3.30;;;19.90;86.50;;;;;;5077251;28;20034;-84
2022/05/01 13:13:52;;;;;;;6.85;3.00;;;19.60;87.70;;;;;;5073494;28;20119;-83
2022/05/01 13:16:31;;;;;;;5.40;3.15;;;19.70;88.20;;;;;;5057470;28;20047;-83
2022/05/01 13:19:06;;;;;;;4.22;2.85;;;19.50;87.70;;;;;;5076343;28;20110;-82
2022/05/01 13:21:33;;;;;;;5.07;3.03;;;19.30;88.20;;;;;;5052493;28;20394;-83
2022/05/01 13:24:02;;;;;;;5.28;3.13;;;19.10;88.60;;;;;;5066258;28;20492;-85
2022/05/01 13:26:28;;;;;;;5.45;3.72;;;19.00;88.40;;;;;;5073393;28;20027;-81
2022/05/01 13:28:54;;;;;;;4.78;3.22;;;18.80;88.60;;;;;;5069294;28;20031;-82
2022/05/01 13:31:20;;;;;;;9.40;5.88;;;18.70;88.80;;;;;;5069916;28;20032;-82
2022/05/01 13:33:45;;;;;;;8.30;6.20;;;18.80;88.60;;;;;;5071099;28;20056;-82
2022/05/01 13:36:11;;;;;;;8.68;6.50;;;18.80;88.30;;;;;;5069421;28;20024;-83